createdAt,value
2019-05-21T00:00:02.378Z,31.23
2019-05-21T00:02:30.949Z,31.37
2019-05-21T00:04:59.671Z,32.13
2019-05-21T00:07:28.521Z,32.53
2019-05-21T00:09:57.250Z,31.80
2019-05-21T00:12:25.801Z,31.62
2019-05-21T00:14:54.414Z,30.55
2019-05-21T00:17:22.863Z,28.10
2019-05-21T00:19:51.372Z,28.47
2019-05-21T00:22:19.964Z,29.90
2019-05-21T00:24:48.757Z,26.20
2019-05-21T00:27:17.331Z,25.55
2019-05-21T00:30:22.605Z,26.25
2019-05-21T00:33:27.670Z,24.60
2019-05-21T00:36:33.383Z,24.98
2019-05-21T00:44:41.034Z,23.90
2019-05-21T00:47:11.543Z,23.42
2019-05-21T00:49:40.379Z,22.93
2019-05-21T00:52:09.699Z,21.48
2019-05-21T00:54:38.441Z,22.15
2019-05-21T00:57:07.041Z,21.75
2019-05-21T00:59:35.648Z,21.35
2019-05-21T01:02:04.372Z,21.77
2019-05-21T01:04:33.079Z,21.00
2019-05-21T01:07:01.598Z,21.23
2019-05-21T01:09:30.135Z,21.42
2019-05-21T01:11:58.761Z,20.92
2019-05-21T01:14:27.226Z,20.72
2019-05-21T01:16:55.843Z,21.75
2019-05-21T01:19:24.451Z,23.07
2019-05-21T01:21:53.154Z,21.80
2019-05-21T01:24:21.749Z,21.68
2019-05-21T01:26:50.274Z,20.62
2019-05-21T01:29:18.729Z,21.65
2019-05-21T01:31:47.252Z,21.75
2019-05-21T01:34:15.777Z,21.60
2019-05-21T01:36:44.344Z,23.70
2019-05-21T01:39:12.925Z,23.27
2019-05-21T01:41:41.376Z,23.55
2019-05-21T01:44:09.924Z,23.85
2019-05-21T01:46:38.380Z,25.10
2019-05-21T01:49:06.933Z,24.12
2019-05-21T01:51:35.521Z,27.17
2019-05-21T01:54:04.121Z,27.48
2019-05-21T01:56:32.640Z,27.95
2019-05-21T01:59:01.200Z,30.72
2019-05-21T02:01:29.789Z,29.70
2019-05-21T02:03:58.315Z,30.72
2019-05-21T02:06:26.768Z,31.17
2019-05-21T02:08:55.366Z,33.38
2019-05-21T02:11:23.905Z,32.33
2019-05-21T02:13:52.429Z,31.23
2019-05-21T02:16:21.017Z,37.05
2019-05-21T02:18:49.660Z,34.83
2019-05-21T02:21:18.113Z,36.73
2019-05-21T02:23:46.639Z,36.83
2019-05-21T02:26:15.233Z,36.13
2019-05-21T02:28:43.720Z,37.40
2019-05-21T02:31:12.266Z,36.55
2019-05-21T02:33:40.783Z,39.25
2019-05-21T02:36:09.305Z,38.83
2019-05-21T02:38:37.900Z,38.55
2019-05-21T02:41:06.425Z,40.17
2019-05-21T02:43:34.987Z,38.08
2019-05-21T02:46:03.561Z,38.83
2019-05-21T02:48:32.083Z,39.05
2019-05-21T02:51:00.697Z,40.03
2019-05-21T02:53:33.651Z,38.92
2019-05-21T02:55:59.557Z,40.80
2019-05-21T02:58:28.110Z,37.95
2019-05-21T03:01:17.945Z,39.73
2019-05-21T03:03:46.680Z,38.53
2019-05-21T03:06:15.395Z,38.73
2019-05-21T03:08:43.973Z,37.85
2019-05-21T03:11:12.717Z,38.20
2019-05-21T03:13:41.237Z,36.98
2019-05-21T03:16:09.805Z,37.30
2019-05-21T03:18:38.424Z,36.13
2019-05-21T03:21:07.110Z,35.58
2019-05-21T03:23:35.705Z,35.78
2019-05-21T03:26:04.306Z,34.50
2019-05-21T03:28:32.925Z,33.85
2019-05-21T03:31:01.441Z,33.73
2019-05-21T03:33:29.882Z,33.85
2019-05-21T03:35:58.445Z,32.70
2019-05-21T03:38:27.086Z,31.52
2019-05-21T03:40:55.643Z,28.40
2019-05-21T03:43:24.158Z,29.23
2019-05-21T03:45:52.686Z,29.85
2019-05-21T03:48:21.281Z,29.50
2019-05-21T03:50:49.804Z,28.83
2019-05-21T03:53:18.485Z,27.95
2019-05-21T03:55:47.099Z,27.27
2019-05-21T03:58:15.694Z,28.00
2019-05-21T04:00:44.258Z,27.17
2019-05-21T04:03:12.767Z,27.05
2019-05-21T04:05:41.367Z,26.52
2019-05-21T04:08:09.830Z,25.10
2019-05-21T04:10:38.438Z,25.97
2019-05-21T04:13:07.567Z,25.17
2019-05-21T04:15:45.316Z,24.77
2019-05-21T04:18:21.335Z,25.65
2019-05-21T04:20:49.803Z,25.72
2019-05-21T04:23:18.430Z,24.72
2019-05-21T04:25:46.988Z,26.25
2019-05-21T04:28:15.579Z,25.12
2019-05-21T04:30:44.107Z,24.27
2019-05-21T04:33:12.857Z,24.30
2019-05-21T04:35:41.332Z,24.65
2019-05-21T04:38:09.929Z,23.98
2019-05-21T04:40:38.456Z,24.23
2019-05-21T04:43:06.989Z,24.87
2019-05-21T04:45:35.576Z,23.57
2019-05-21T04:48:04.180Z,24.40
2019-05-21T04:50:32.727Z,23.77
2019-05-21T04:53:01.319Z,23.55
2019-05-21T04:55:29.865Z,23.80
2019-05-21T04:57:58.456Z,23.65
2019-05-21T05:00:27.090Z,22.73
2019-05-21T05:02:55.607Z,23.87
2019-05-21T05:05:24.233Z,22.35
2019-05-21T05:07:52.762Z,24.02
2019-05-21T05:10:21.351Z,22.70
2019-05-21T05:12:49.827Z,23.15
2019-05-21T05:15:18.630Z,22.75
2019-05-21T05:17:47.448Z,22.02
2019-05-21T05:20:16.595Z,21.68
2019-05-21T05:22:45.107Z,21.55
2019-05-21T05:25:14.119Z,23.77
2019-05-21T05:27:42.593Z,21.87
2019-05-21T05:30:11.484Z,23.00
2019-05-21T05:32:40.132Z,20.88
2019-05-21T05:35:09.133Z,21.27
2019-05-21T05:37:43.920Z,21.40
2019-05-21T05:40:08.784Z,20.08
2019-05-21T05:42:37.373Z,21.42
2019-05-21T05:45:07.779Z,19.37
2019-05-21T05:47:36.316Z,19.25
2019-05-21T05:50:08.096Z,18.45
2019-05-21T05:52:36.575Z,19.15
2019-05-21T05:55:06.843Z,19.07
2019-05-21T05:57:35.401Z,17.62
2019-05-21T06:00:05.538Z,19.57
2019-05-21T06:02:34.057Z,18.62
2019-05-21T06:05:02.690Z,18.70
2019-05-21T06:07:31.141Z,18.37
2019-05-21T06:09:59.674Z,19.48
2019-05-21T06:12:28.266Z,17.87
2019-05-21T06:14:56.718Z,18.32
2019-05-21T06:17:25.240Z,18.98
2019-05-21T06:19:53.878Z,18.73
2019-05-21T06:22:22.398Z,19.90
2019-05-21T06:24:50.924Z,18.12
2019-05-21T06:27:19.550Z,20.27
2019-05-21T06:29:48.007Z,19.27
2019-05-21T06:32:16.492Z,20.50
2019-05-21T06:34:44.953Z,19.02
2019-05-21T06:37:13.573Z,19.30
2019-05-21T06:39:42.169Z,20.30
2019-05-21T06:42:10.700Z,18.75
2019-05-21T06:44:39.264Z,18.12
2019-05-21T06:47:07.791Z,17.25
2019-05-21T06:49:36.245Z,18.55
2019-05-21T06:52:04.970Z,17.80
2019-05-21T06:54:33.440Z,17.35
2019-05-21T06:57:01.965Z,17.32
2019-05-21T06:59:30.518Z,17.15
2019-05-21T07:01:59.061Z,16.75
2019-05-21T07:04:27.648Z,18.07
2019-05-21T07:06:56.268Z,16.85
2019-05-21T07:09:24.851Z,16.57
2019-05-21T07:11:53.551Z,16.57
2019-05-21T07:14:22.105Z,17.32
2019-05-21T07:16:52.130Z,17.05
2019-05-21T07:19:20.714Z,17.12
2019-05-21T07:21:49.439Z,16.85
2019-05-21T07:24:18.006Z,16.62
2019-05-21T07:26:47.672Z,17.48
2019-05-21T07:29:16.374Z,16.00
2019-05-21T07:31:44.874Z,16.82
2019-05-21T07:34:13.590Z,16.97
2019-05-21T07:36:42.180Z,16.48
2019-05-21T07:39:10.832Z,17.12
2019-05-21T07:41:39.372Z,16.15
2019-05-21T07:44:07.846Z,17.15
2019-05-21T07:46:39.526Z,16.10
2019-05-21T07:49:06.771Z,16.25
2019-05-21T07:51:35.348Z,15.78
2019-05-21T07:54:04.373Z,15.25
2019-05-21T07:56:32.860Z,14.25
2019-05-21T07:59:01.409Z,14.30
2019-05-21T08:01:30.385Z,15.25
2019-05-21T08:03:58.911Z,13.90
2019-05-21T08:06:27.604Z,14.30
2019-05-21T08:09:11.731Z,14.83
2019-05-21T08:11:26.514Z,14.05
2019-05-21T08:13:55.054Z,14.80
2019-05-21T08:16:23.645Z,14.60
2019-05-21T08:18:52.232Z,14.05
2019-05-21T08:21:20.829Z,14.83
2019-05-21T08:23:49.291Z,14.35
2019-05-21T08:26:17.814Z,14.83
2019-05-21T08:28:46.484Z,13.28
2019-05-21T08:31:15.012Z,14.73
2019-05-21T08:33:43.648Z,15.78
2019-05-21T08:36:12.203Z,14.80
2019-05-21T08:38:40.797Z,14.28
2019-05-21T08:41:09.555Z,14.05
2019-05-21T08:43:38.081Z,13.30
2019-05-21T08:46:06.700Z,14.38
2019-05-21T08:48:35.394Z,15.13
2019-05-21T08:51:03.983Z,13.75
2019-05-21T08:53:32.625Z,13.80
2019-05-21T08:56:01.197Z,13.95
2019-05-21T08:58:29.824Z,13.65
2019-05-21T09:00:58.481Z,12.95
2019-05-21T09:03:27.106Z,13.50
2019-05-21T09:05:55.930Z,13.25
2019-05-21T09:08:24.563Z,13.03
2019-05-21T09:10:53.091Z,13.55
2019-05-21T09:13:21.574Z,13.65
2019-05-21T09:15:50.169Z,12.95
2019-05-21T09:18:18.789Z,14.30
2019-05-21T09:20:47.385Z,13.75
2019-05-21T09:23:15.972Z,14.30
2019-05-21T09:25:44.512Z,14.10
2019-05-21T09:28:13.032Z,13.98
2019-05-21T09:30:41.597Z,14.73
2019-05-21T09:33:10.138Z,14.83
2019-05-21T09:35:38.748Z,14.87
2019-05-21T09:38:07.203Z,15.40
2019-05-21T09:40:35.791Z,16.00
2019-05-21T09:43:04.320Z,16.25
2019-05-21T09:45:32.923Z,15.13
2019-05-21T09:48:01.481Z,15.38
2019-05-21T09:50:29.971Z,15.93
2019-05-21T09:52:58.567Z,16.95
2019-05-21T09:55:27.169Z,16.37
2019-05-21T09:58:12.757Z,17.30
2019-05-21T10:00:58.949Z,17.12
2019-05-21T10:03:41.163Z,16.25
2019-05-21T10:06:09.887Z,19.55
2019-05-21T10:08:38.485Z,18.70
2019-05-21T10:11:07.150Z,19.32
2019-05-21T10:13:35.631Z,19.02
2019-05-21T10:16:04.154Z,19.48
2019-05-21T10:18:32.621Z,20.43
2019-05-21T10:21:01.222Z,19.87
2019-05-21T10:23:29.714Z,21.23
2019-05-21T10:25:58.334Z,20.70
2019-05-21T10:28:26.863Z,20.55
2019-05-21T10:30:55.454Z,20.02
2019-05-21T10:33:23.998Z,20.37
2019-05-21T10:35:52.594Z,20.12
2019-05-21T10:38:21.116Z,20.70
2019-05-21T10:40:49.749Z,21.57
2019-05-21T10:43:18.345Z,20.35
2019-05-21T10:45:46.990Z,21.42
2019-05-21T10:48:15.534Z,19.85
2019-05-21T10:50:44.115Z,18.52
2019-05-21T10:53:12.858Z,20.70
2019-05-21T10:55:41.404Z,19.37
2019-05-21T10:58:10.102Z,20.62
2019-05-21T11:00:38.942Z,20.75
2019-05-21T11:03:21.000Z,21.23
2019-05-21T11:06:09.055Z,20.95
2019-05-21T11:08:25.175Z,20.12
2019-05-21T11:10:54.232Z,21.12
2019-05-21T11:13:22.858Z,21.85
2019-05-21T11:15:51.380Z,22.45
2019-05-21T11:18:20.007Z,21.55
2019-05-21T11:20:48.602Z,23.32
2019-05-21T11:23:17.162Z,21.60
2019-05-21T11:25:45.715Z,22.62
2019-05-21T11:28:14.270Z,22.15
2019-05-21T11:30:42.989Z,21.52
2019-05-21T11:33:12.398Z,20.52
2019-05-21T11:35:41.017Z,21.42
2019-05-21T11:38:09.559Z,22.87
2019-05-21T11:40:38.190Z,22.77
2019-05-21T11:43:06.823Z,22.75
2019-05-21T11:45:35.419Z,22.05
2019-05-21T11:48:04.110Z,21.60
2019-05-21T11:50:32.647Z,21.23
2019-05-21T11:53:01.128Z,22.40
2019-05-21T11:55:29.578Z,22.70
2019-05-21T11:57:58.197Z,21.62
2019-05-21T12:00:28.535Z,22.30
2019-05-21T12:02:57.155Z,21.85
2019-05-21T12:05:25.702Z,21.87
2019-05-21T12:07:54.323Z,21.07
2019-05-21T12:10:22.919Z,21.70
2019-05-21T12:12:51.450Z,21.05
2019-05-21T12:15:20.059Z,22.02
2019-05-21T12:17:48.584Z,22.98
2019-05-21T12:20:34.904Z,22.10
2019-05-21T12:22:47.846Z,23.35
2019-05-21T12:25:16.653Z,21.87
2019-05-21T12:27:45.279Z,22.77
2019-05-21T12:30:14.280Z,22.07
2019-05-21T12:32:42.915Z,22.58
2019-05-21T12:35:11.646Z,25.08
2019-05-21T12:37:40.198Z,23.52
2019-05-21T12:40:10.293Z,22.80
2019-05-21T12:42:38.967Z,26.27
2019-05-21T12:45:07.737Z,24.27
2019-05-21T12:47:36.272Z,23.22
2019-05-21T12:50:06.172Z,23.07
2019-05-21T12:52:34.797Z,25.10
2019-05-21T12:55:04.797Z,22.40
2019-05-21T12:57:33.499Z,22.98
2019-05-21T13:00:02.220Z,22.55
2019-05-21T13:02:30.910Z,21.62
2019-05-21T13:04:59.501Z,22.45
2019-05-21T13:07:28.176Z,21.07
2019-05-21T13:09:56.609Z,21.45
2019-05-21T13:12:25.215Z,20.85
2019-05-21T13:14:53.806Z,23.02
2019-05-21T13:17:22.615Z,21.50
2019-05-21T13:19:51.194Z,21.17
2019-05-21T13:22:19.714Z,20.32
2019-05-21T13:24:48.378Z,20.12
2019-05-21T13:27:17.114Z,21.50
2019-05-21T13:29:46.142Z,20.37
2019-05-21T13:32:14.946Z,21.57
2019-05-21T13:34:43.494Z,20.57
2019-05-21T13:37:12.087Z,21.17
2019-05-21T13:39:49.590Z,20.70
2019-05-21T13:42:11.078Z,21.60
2019-05-21T13:44:39.685Z,20.72
2019-05-21T13:47:08.209Z,20.40
2019-05-21T13:49:36.737Z,21.70
2019-05-21T13:52:05.258Z,20.55
2019-05-21T13:54:33.805Z,21.90
2019-05-21T13:57:02.412Z,21.42
2019-05-21T13:59:31.134Z,22.37
2019-05-21T14:02:00.105Z,20.85
2019-05-21T14:04:28.704Z,22.30
2019-05-21T14:06:57.304Z,22.45
2019-05-21T14:09:25.884Z,21.87
2019-05-21T14:11:54.471Z,23.00
2019-05-21T14:14:23.070Z,21.42
2019-05-21T14:16:51.609Z,22.67
2019-05-21T14:19:20.183Z,23.40
2019-05-21T14:21:48.877Z,22.35
2019-05-21T14:24:17.470Z,22.07
2019-05-21T14:26:46.070Z,22.55
2019-05-21T14:29:14.599Z,25.52
2019-05-21T14:31:43.246Z,23.83
2019-05-21T14:34:11.706Z,24.65
2019-05-21T14:36:40.241Z,27.82
2019-05-21T14:39:10.478Z,30.52
2019-05-21T14:41:39.069Z,35.03
2019-05-21T14:44:07.588Z,37.98
2019-05-21T14:46:36.186Z,37.35
2019-05-21T14:49:04.788Z,39.15
2019-05-21T14:51:33.386Z,41.13
2019-05-21T14:54:03.552Z,40.15
2019-05-21T14:56:32.182Z,42.38
2019-05-21T14:59:00.782Z,45.78
2019-05-21T15:01:29.383Z,47.45
2019-05-21T15:03:58.220Z,48.65
2019-05-21T15:06:26.905Z,50.15
2019-05-21T15:08:55.436Z,50.95
2019-05-21T15:11:23.965Z,49.77
2019-05-21T15:13:52.499Z,46.73
2019-05-21T15:16:21.053Z,48.02
2019-05-21T15:18:49.567Z,48.15
2019-05-21T15:21:19.743Z,48.35
2019-05-21T15:23:57.138Z,49.00
2019-05-21T15:26:25.993Z,49.83
2019-05-21T15:28:54.794Z,44.20
2019-05-21T15:31:23.616Z,39.35
2019-05-21T15:33:52.310Z,37.73
2019-05-21T15:36:20.920Z,33.35
2019-05-21T15:38:51.122Z,33.40
2019-05-21T15:41:20.028Z,32.33
2019-05-21T15:43:48.720Z,33.58
2019-05-21T15:46:17.254Z,33.50
2019-05-21T15:48:45.852Z,34.80
2019-05-21T15:51:14.388Z,34.80
2019-05-21T15:53:43.103Z,34.23
2019-05-21T15:56:11.591Z,30.27
2019-05-21T15:58:40.316Z,30.55
2019-05-21T16:01:08.986Z,30.85
2019-05-21T16:03:37.512Z,30.10
2019-05-21T16:06:06.159Z,29.63
2019-05-21T16:08:35.009Z,26.52
2019-05-21T16:11:03.848Z,27.20
2019-05-21T16:13:32.444Z,26.68
2019-05-21T16:16:00.999Z,25.45
2019-05-21T16:18:29.606Z,25.85
2019-05-21T16:20:58.219Z,25.50
2019-05-21T16:23:26.741Z,25.60
2019-05-21T16:25:55.359Z,25.20
2019-05-21T16:28:23.955Z,24.23
2019-05-21T16:30:52.735Z,23.62
2019-05-21T16:33:21.296Z,25.08
2019-05-21T16:35:49.934Z,24.85
2019-05-21T16:38:19.303Z,25.20
2019-05-21T16:40:48.057Z,25.30
2019-05-21T16:43:16.677Z,24.35
2019-05-21T16:45:45.568Z,26.30
2019-05-21T16:48:14.869Z,24.82
2019-05-21T16:50:43.580Z,25.08
2019-05-21T16:53:12.554Z,24.98
2019-05-21T16:55:41.342Z,24.80
2019-05-21T16:58:10.243Z,25.10
2019-05-21T17:00:40.126Z,24.47
2019-05-21T17:03:09.027Z,26.17
2019-05-21T17:05:38.296Z,24.98
2019-05-21T17:08:07.276Z,24.37
2019-05-21T17:10:35.919Z,25.45
2019-05-21T17:13:09.211Z,26.55
2019-05-21T17:15:40.559Z,24.10
2019-05-21T17:18:12.460Z,23.40
2019-05-21T17:20:43.150Z,25.82
2019-05-21T17:23:14.052Z,25.05
2019-05-21T17:25:44.611Z,24.57
2019-05-21T17:28:15.312Z,25.25
2019-05-21T17:31:39.890Z,25.52
2019-05-21T17:34:10.191Z,25.17
2019-05-21T17:36:40.576Z,23.98
2019-05-21T17:39:10.778Z,24.10
2019-05-21T17:41:41.638Z,24.15
2019-05-21T17:44:12.959Z,22.62
2019-05-21T17:46:44.550Z,23.20
2019-05-21T17:49:15.423Z,22.10
2019-05-21T17:51:52.115Z,22.50
2019-05-21T17:54:23.633Z,22.45
2019-05-21T17:56:53.830Z,22.50
2019-05-21T17:59:24.915Z,21.95
2019-05-21T18:01:55.642Z,22.52
2019-05-21T18:04:27.458Z,23.73
2019-05-21T18:07:00.172Z,20.97
2019-05-21T18:09:33.543Z,20.95
2019-05-21T18:12:30.857Z,20.70
2019-05-21T18:14:49.711Z,20.43
2019-05-21T18:17:22.310Z,21.87
2019-05-21T18:19:54.288Z,21.42
2019-05-21T18:22:25.933Z,20.88
2019-05-21T18:24:57.337Z,21.60
2019-05-21T18:27:29.709Z,20.37
2019-05-21T18:30:03.906Z,20.43
2019-05-21T18:32:44.733Z,19.23
2019-05-21T18:35:18.109Z,20.00
2019-05-21T18:37:51.993Z,20.23
2019-05-21T18:40:25.538Z,20.75
2019-05-21T18:42:57.840Z,19.20
2019-05-21T18:45:36.368Z,19.95
2019-05-21T18:48:09.928Z,20.20
2019-05-21T18:50:44.052Z,20.07
2019-05-21T18:54:09.494Z,19.80
2019-05-21T18:56:43.505Z,20.13
2019-05-21T18:59:16.741Z,20.95
2019-05-21T19:01:50.009Z,20.12
2019-05-21T19:04:23.654Z,19.75
2019-05-21T19:06:57.838Z,19.40
2019-05-21T19:09:30.647Z,20.40
2019-05-21T19:12:04.082Z,19.48
2019-05-21T19:15:29.292Z,20.02
2019-05-21T19:18:02.913Z,20.02
2019-05-21T19:20:36.880Z,19.45
2019-05-21T19:23:10.364Z,20.17
2019-05-21T19:25:44.870Z,19.40
2019-05-21T19:30:50.391Z,19.05
2019-05-21T19:33:23.387Z,19.82
2019-05-21T19:39:42.703Z,20.50
2019-05-21T19:42:15.757Z,22.05
2019-05-21T19:44:48.783Z,23.57
2019-05-21T19:47:21.619Z,24.25
2019-05-21T19:49:54.543Z,24.27
2019-05-21T19:52:27.051Z,25.15
2019-05-21T19:55:00.400Z,24.65
2019-05-21T19:57:34.074Z,25.95
2019-05-21T20:00:58.872Z,25.50
2019-05-21T20:03:31.897Z,28.77
2019-05-21T20:06:04.332Z,28.95
2019-05-21T20:08:36.552Z,28.83
2019-05-21T20:11:08.773Z,26.23
2019-05-21T20:13:40.474Z,27.55
2019-05-21T20:16:12.579Z,28.12
2019-05-21T20:18:43.777Z,26.62
2019-05-21T20:22:10.067Z,25.32
2019-05-21T20:27:11.889Z,24.67
2019-05-21T20:29:43.260Z,24.90
2019-05-21T20:32:14.927Z,25.48
2019-05-21T20:34:46.201Z,24.50
2019-05-21T20:37:17.435Z,22.52
2019-05-21T20:39:49.911Z,21.57
2019-05-21T20:43:14.301Z,22.00
2019-05-21T20:45:47.095Z,22.25
2019-05-21T20:48:19.430Z,22.45
2019-05-21T20:50:50.577Z,22.87
2019-05-21T20:53:22.968Z,25.12
2019-05-21T20:55:53.034Z,24.37
2019-05-21T20:58:23.479Z,23.12
2019-05-21T21:00:55.814Z,23.52
2019-05-21T21:03:34.536Z,26.05
2019-05-21T21:06:05.624Z,25.32
2019-05-21T21:08:37.412Z,26.05
2019-05-21T21:11:08.945Z,25.70
2019-05-21T21:13:38.523Z,24.87
2019-05-21T21:16:08.799Z,24.95
2019-05-21T21:18:39.066Z,24.98
2019-05-21T21:21:08.798Z,25.17
2019-05-21T21:23:42.828Z,26.33
2019-05-21T21:26:12.136Z,27.17
2019-05-21T21:28:41.229Z,26.62
2019-05-21T21:31:10.338Z,25.92
2019-05-21T21:33:40.046Z,26.00
2019-05-21T21:36:09.037Z,26.07
2019-05-21T21:38:38.989Z,25.62
2019-05-21T21:41:08.264Z,25.97
2019-05-21T21:43:37.060Z,27.05
2019-05-21T21:46:06.191Z,26.02
2019-05-21T21:48:35.023Z,27.58
2019-05-21T21:51:04.537Z,27.70
2019-05-21T21:53:33.504Z,28.85
2019-05-21T21:56:02.213Z,28.52
2019-05-21T21:58:30.739Z,28.02
2019-05-21T22:01:21.339Z,28.02
2019-05-21T22:03:50.742Z,27.75
2019-05-21T22:06:21.085Z,27.70
2019-05-21T22:08:50.781Z,28.00
2019-05-21T22:11:20.055Z,29.27
2019-05-21T22:13:48.898Z,29.63
2019-05-21T22:16:17.793Z,30.40
2019-05-21T22:18:46.865Z,31.10
2019-05-21T22:21:17.063Z,30.57
2019-05-21T22:23:45.597Z,31.55
2019-05-21T22:26:14.297Z,33.20
2019-05-21T22:28:42.753Z,33.42
2019-05-21T22:31:11.350Z,32.40
2019-05-21T22:33:39.951Z,31.45
2019-05-21T22:36:08.547Z,30.62
2019-05-21T22:38:37.001Z,30.55
2019-05-21T22:41:05.545Z,30.23
2019-05-21T22:43:34.239Z,29.70
2019-05-21T22:46:02.836Z,29.42
2019-05-21T22:48:31.364Z,31.33
2019-05-21T22:50:59.891Z,30.00
2019-05-21T22:53:28.525Z,29.48
2019-05-21T22:55:57.305Z,29.55
2019-05-21T22:58:25.900Z,30.70
2019-05-21T23:00:55.387Z,29.55
2019-05-21T23:03:23.984Z,29.02
2019-05-21T23:05:52.758Z,28.85
2019-05-21T23:08:21.287Z,30.23
2019-05-21T23:10:49.820Z,28.35
2019-05-21T23:13:18.353Z,28.27
2019-05-21T23:15:47.718Z,28.30
2019-05-21T23:18:16.821Z,26.73
2019-05-21T23:20:46.583Z,24.92
2019-05-21T23:23:15.648Z,25.20
2019-05-21T23:25:44.460Z,25.02
2019-05-21T23:28:13.715Z,25.68
2019-05-21T23:30:42.170Z,26.10
2019-05-21T23:33:10.908Z,26.57
2019-05-21T23:35:41.285Z,25.97
2019-05-21T23:38:10.670Z,26.37
2019-05-21T23:40:39.470Z,25.62
2019-05-21T23:43:10.032Z,25.17
2019-05-21T23:45:38.492Z,25.08
2019-05-21T23:48:09.134Z,24.72
2019-05-21T23:50:38.028Z,24.20
2019-05-21T23:53:07.934Z,25.27
2019-05-21T23:55:36.992Z,24.35
2019-05-21T23:58:06.286Z,23.83
